createdAt,value
2023-04-26T00:03:38.168Z,6.31
2023-04-26T00:08:34.752Z,6.35
2023-04-26T00:13:30.937Z,6.39
2023-04-26T00:18:27.528Z,6.44
2023-04-26T00:24:38.224Z,6.48
2023-04-26T00:29:34.922Z,6.39
2023-04-26T00:34:31.222Z,6.31
2023-04-26T00:39:27.879Z,6.27
2023-04-26T00:45:38.483Z,6.27
2023-04-26T00:50:35.218Z,6.31
2023-04-26T00:55:31.543Z,6.39
2023-04-26T01:00:28.122Z,6.44
2023-04-26T01:06:38.780Z,6.27
2023-04-26T01:11:35.269Z,6.22
2023-04-26T01:16:31.787Z,6.31
2023-04-26T01:21:28.336Z,6.27
2023-04-26T01:27:39.037Z,6.1
2023-04-26T01:32:35.473Z,6.18
2023-04-26T01:37:32.023Z,6.06
2023-04-26T01:42:28.531Z,6.06
2023-04-26T01:47:25.189Z,6.02
2023-04-26T01:53:35.750Z,6.06
2023-04-26T01:58:32.289Z,5.86
2023-04-26T02:03:28.922Z,5.94
2023-04-26T02:08:25.357Z,5.9
2023-04-26T02:14:36.021Z,5.94
2023-04-26T02:19:32.609Z,5.86
2023-04-26T02:24:29.171Z,5.9
2023-04-26T02:29:42.139Z,5.78
2023-04-26T02:33:08.054Z,5.78
2023-04-26T02:35:36.694Z,5.78
2023-04-26T02:40:32.888Z,5.74
2023-04-26T02:45:29.402Z,5.78
2023-04-26T02:56:36.539Z,5.74
2023-04-26T03:01:33.226Z,5.74
2023-04-26T03:06:29.606Z,5.86
2023-04-26T03:11:26.139Z,5.9
2023-04-26T03:17:36.803Z,5.82
2023-04-26T03:22:33.349Z,5.86
2023-04-26T03:27:29.870Z,5.94
2023-04-26T03:32:26.471Z,5.94
2023-04-26T03:38:37.059Z,5.94
2023-04-26T03:43:33.688Z,5.98
2023-04-26T03:48:30.145Z,5.9
2023-04-26T03:53:26.688Z,5.86
2023-04-26T03:59:37.332Z,5.86
2023-04-26T04:04:34.066Z,5.86
2023-04-26T04:09:30.467Z,5.86
2023-04-26T04:20:37.605Z,5.74
2023-04-26T04:25:34.173Z,5.74
2023-04-26T04:30:30.621Z,5.66
2023-04-26T04:35:27.227Z,5.59
2023-04-26T04:41:37.893Z,5.62
2023-04-26T04:46:34.891Z,5.66
2023-04-26T04:51:30.905Z,5.82
2023-04-26T04:56:27.543Z,5.86
2023-04-26T05:02:38.216Z,5.94
2023-04-26T05:07:35.071Z,5.9
2023-04-26T05:12:31.187Z,5.98
2023-04-26T05:17:27.794Z,6.14
2023-04-26T05:23:38.403Z,6.18
2023-04-26T05:28:35.032Z,6.22
2023-04-26T05:33:31.426Z,6.22
2023-04-26T05:38:27.995Z,6.14
2023-04-26T05:43:24.510Z,6.18
2023-04-26T05:49:35.323Z,6.31
2023-04-26T05:54:31.704Z,6.35
2023-04-26T05:59:28.255Z,6.31
2023-04-26T06:05:39.049Z,6.35
2023-04-26T06:10:35.524Z,6.44
2023-04-26T06:15:32.023Z,6.44
2023-04-26T06:20:28.649Z,6.57
2023-04-26T06:26:39.290Z,6.65
2023-04-26T06:31:35.782Z,6.79
2023-04-26T06:36:32.277Z,6.7
2023-04-26T06:41:28.853Z,6.83
2023-04-26T06:46:25.648Z,6.92
2023-04-26T06:52:35.988Z,7.16
2023-04-26T06:57:32.644Z,7.16
2023-04-26T07:02:29.468Z,7.16
2023-04-26T07:07:25.589Z,7.2
2023-04-26T07:13:36.237Z,7.35
2023-04-26T07:18:32.873Z,7.54
2023-04-26T07:23:29.348Z,7.59
2023-04-26T07:34:36.514Z,8.01
2023-04-26T07:39:33.105Z,8
2023-04-26T07:44:29.573Z,8.12
2023-04-26T07:49:26.202Z,8.2
2023-04-26T07:55:36.787Z,7.66
2023-04-26T08:00:33.325Z,7.03
2023-04-26T08:05:29.946Z,7.53
2023-04-26T08:10:26.455Z,7.08
2023-04-26T08:16:37.074Z,7.18
2023-04-26T08:21:33.590Z,6.83
2023-04-26T08:26:30.107Z,6.87
2023-04-26T08:37:37.325Z,7.16
2023-04-26T08:42:34.719Z,6.65
2023-04-26T08:47:30.407Z,7
2023-04-26T08:58:37.603Z,6.15
2023-04-26T09:03:34.273Z,5.86
2023-04-26T09:08:30.615Z,5.59
2023-04-26T09:13:27.190Z,5.73
2023-04-26T09:19:37.901Z,5.68
2023-04-26T09:24:34.419Z,5.37
2023-04-26T09:29:30.885Z,5.82
2023-04-26T09:34:27.457Z,5.79
2023-04-26T09:40:38.098Z,5.83
2023-04-26T09:45:34.652Z,5.6
2023-04-26T09:50:31.169Z,5.22
2023-04-26T09:55:34.825Z,4.98
2023-04-26T09:56:41.910Z,4.98
2023-04-26T10:06:35.174Z,5.09
2023-04-26T10:11:31.408Z,5.01
2023-04-26T10:16:28.033Z,5
2023-04-26T10:22:38.665Z,4.83
2023-04-26T10:27:35.745Z,4.84
2023-04-26T10:32:31.838Z,5.03
2023-04-26T10:37:28.410Z,4.9
2023-04-26T10:42:25.925Z,5.11
2023-04-26T10:48:35.614Z,5.44
2023-04-26T10:53:32.049Z,5.15
2023-04-26T10:58:28.493Z,4.81
2023-04-26T11:03:25.359Z,4.78
2023-04-26T11:09:35.809Z,4.67
2023-04-26T11:14:32.250Z,4.79
2023-04-26T11:19:28.838Z,5.06
2023-04-26T11:24:25.391Z,5.34
2023-04-26T11:30:35.952Z,5.4
2023-04-26T11:35:32.525Z,5.22
2023-04-26T11:40:29.156Z,5.15
2023-04-26T11:45:25.638Z,5.05
2023-04-26T11:51:36.219Z,5.63
2023-04-26T11:56:32.779Z,5.63
2023-04-26T12:01:29.324Z,5.67
2023-04-26T12:12:36.526Z,5.5
2023-04-26T12:17:33.254Z,4.92
2023-04-26T12:22:29.559Z,4.99
2023-04-26T12:27:26.127Z,5.13
2023-04-26T12:33:36.783Z,5.49
2023-04-26T12:38:33.366Z,5.25
2023-04-26T12:43:29.843Z,5.53
2023-04-26T12:48:26.358Z,5.45
2023-04-26T12:54:37.051Z,5.1
2023-04-26T12:59:33.610Z,4.83
2023-04-26T13:04:30.310Z,4.8
2023-04-26T13:09:26.721Z,4.85
2023-04-26T13:15:37.341Z,4.83
2023-04-26T13:20:33.862Z,4.7
2023-04-26T13:25:30.351Z,5.18
2023-04-26T13:36:37.570Z,5.69
2023-04-26T13:41:34.082Z,5.23
2023-04-26T13:46:30.599Z,4.87
2023-04-26T13:51:27.181Z,6.01
2023-04-26T13:57:37.925Z,5.56
2023-04-26T14:02:34.615Z,4.84
2023-04-26T14:07:30.959Z,5.26
2023-04-26T14:12:27.457Z,5.56
2023-04-26T14:18:38.069Z,6.13
2023-04-26T14:23:34.693Z,5.53
2023-04-26T14:28:31.120Z,5.56
2023-04-26T14:33:27.780Z,6.07
2023-04-26T14:39:38.380Z,5.91
2023-04-26T14:44:34.891Z,6.29
2023-04-26T14:49:31.493Z,5.28
2023-04-26T14:54:28.027Z,5.47
2023-04-26T15:00:38.746Z,5.81
2023-04-26T15:05:35.331Z,5.85
2023-04-26T15:08:03.440Z,5.7
2023-04-26T15:10:31.657Z,5.56
2023-04-26T15:15:28.282Z,5.85
2023-04-26T15:20:24.828Z,5.22
2023-04-26T15:26:35.609Z,4.82
2023-04-26T15:31:32.023Z,5.25
2023-04-26T15:36:28.519Z,5.88
2023-04-26T15:41:25.082Z,6.09
2023-04-26T15:47:35.854Z,4.9
2023-04-26T15:52:32.212Z,4.73
2023-04-26T15:57:28.749Z,4.78
2023-04-26T16:02:25.409Z,4.72
2023-04-26T16:08:40.293Z,4.73
2023-04-26T16:13:32.499Z,5.32
2023-04-26T16:18:29.114Z,5.37
2023-04-26T16:23:25.630Z,5.59
2023-04-26T16:29:36.233Z,5.66
2023-04-26T16:34:32.838Z,5.36
2023-04-26T16:39:29.291Z,5.09
2023-04-26T16:44:25.884Z,5.06
2023-04-26T16:50:36.570Z,4.69
2023-04-26T16:54:27.060Z,4.89
2023-04-26T17:00:37.736Z,5.18
2023-04-26T17:05:34.328Z,4.8
2023-04-26T17:10:30.795Z,4.93
2023-04-26T17:15:27.442Z,5
2023-04-26T17:21:38.006Z,4.74
2023-04-26T17:26:34.534Z,4.73
2023-04-26T17:31:31.051Z,5.18
2023-04-26T17:36:27.639Z,5.04
2023-04-26T17:42:38.258Z,4.95
2023-04-26T17:47:34.929Z,4.72
2023-04-26T17:52:31.298Z,4.66
2023-04-26T17:57:27.860Z,4.49
2023-04-26T18:03:38.708Z,4.6
2023-04-26T18:08:35.114Z,4.71
2023-04-26T18:13:31.566Z,4.83
2023-04-26T18:18:28.191Z,4.38
2023-04-26T18:24:38.811Z,4.46
2023-04-26T18:29:35.445Z,4.44
2023-04-26T18:34:31.825Z,4.57
2023-04-26T18:39:28.478Z,4.54
2023-04-26T18:45:39.051Z,4.46
2023-04-26T18:50:35.763Z,4.5
2023-04-26T18:55:32.124Z,4.5
2023-04-26T19:00:28.706Z,4.55
2023-04-26T19:06:39.311Z,4.53
2023-04-26T19:11:36.035Z,4.78
2023-04-26T19:16:32.546Z,4.5
2023-04-26T19:21:28.931Z,4.62
2023-04-26T19:26:25.453Z,4.53
2023-04-26T19:32:36.360Z,4.62
2023-04-26T19:42:29.166Z,4.51
2023-04-26T19:47:25.772Z,4.62
2023-04-26T19:53:36.456Z,4.74
2023-04-26T19:58:32.958Z,4.69
2023-04-26T20:03:29.668Z,4.68
2023-04-26T20:14:36.627Z,4.71
2023-04-26T20:19:33.209Z,4.78
2023-04-26T20:24:29.714Z,4.9
2023-04-26T20:29:26.352Z,4.92
2023-04-26T20:35:36.917Z,4.91
2023-04-26T20:40:33.459Z,4.77
2023-04-26T20:45:29.994Z,4.8
2023-04-26T20:50:26.577Z,4.8
2023-04-26T20:56:37.136Z,5.07
2023-04-26T21:01:33.867Z,5.08
2023-04-26T21:06:30.320Z,5.21
2023-04-26T21:11:26.772Z,5.25
2023-04-26T21:17:37.486Z,5.09
2023-04-26T21:22:34.013Z,5.34
2023-04-26T21:27:30.459Z,5.19
2023-04-26T21:32:27.190Z,5.22
2023-04-26T21:38:37.732Z,5.36
2023-04-26T21:43:34.241Z,5.26
2023-04-26T21:48:30.732Z,5.39
2023-04-26T21:53:27.295Z,5.44
2023-04-26T21:59:37.988Z,5.45
2023-04-26T22:04:34.587Z,5.41
2023-04-26T22:09:30.994Z,5.61
2023-04-26T22:14:27.577Z,5.59
2023-04-26T22:20:38.248Z,5.64
2023-04-26T22:25:34.848Z,5.52
2023-04-26T22:30:31.289Z,5.57
2023-04-26T22:35:27.883Z,5.64
2023-04-26T22:41:38.492Z,5.74
2023-04-26T22:46:35.110Z,5.61
2023-04-26T22:51:31.534Z,5.67
2023-04-26T22:56:28.163Z,5.83
2023-04-26T23:02:38.871Z,6.02
2023-04-26T23:07:35.295Z,6.03
2023-04-26T23:12:31.862Z,5.98
2023-04-26T23:17:28.484Z,6.06
2023-04-26T23:23:39.008Z,6.14
2023-04-26T23:28:35.540Z,6.17
2023-04-26T23:33:32.094Z,6.11
2023-04-26T23:38:28.626Z,6.09
2023-04-26T23:43:25.206Z,6.08
2023-04-26T23:49:36.089Z,6.02
2023-04-26T23:54:32.350Z,5.89
2023-04-26T23:59:28.904Z,5.88
